createdAt,value
2018-05-13T00:01:00.041Z,62.60
2018-05-13T00:03:03.780Z,62.80
2018-05-13T00:05:07.843Z,62.60
2018-05-13T00:07:11.924Z,62.50
2018-05-13T00:09:15.368Z,62.50
2018-05-13T00:11:18.691Z,62.20
2018-05-13T00:13:22.777Z,62.70
2018-05-13T00:15:26.144Z,62.70
2018-05-13T00:17:29.494Z,62.20
2018-05-13T00:19:32.834Z,63.60
2018-05-13T00:21:36.242Z,63.10
2018-05-13T00:23:39.558Z,63.10
2018-05-13T00:25:42.880Z,63.80
2018-05-13T00:27:46.955Z,63.90
2018-05-13T00:29:50.281Z,63.80
2018-05-13T00:31:53.578Z,63.90
2018-05-13T00:33:56.988Z,64.60
2018-05-13T00:36:00.292Z,64.20
2018-05-13T00:38:04.339Z,64.60
2018-05-13T00:40:07.658Z,64.50
2018-05-13T00:42:10.986Z,66.10
2018-05-13T00:44:14.296Z,65.50
2018-05-13T00:46:17.676Z,65.40
2018-05-13T00:48:20.993Z,65.40
2018-05-13T00:50:24.519Z,66.40
2018-05-13T00:52:27.865Z,66.40
2018-05-13T00:54:48.787Z,66.40
2018-05-13T00:56:52.139Z,66.20
2018-05-13T00:58:55.455Z,66.80
2018-05-13T01:00:58.744Z,67.00
2018-05-13T01:03:02.053Z,67.50
2018-05-13T01:05:05.388Z,68.40
2018-05-13T01:07:08.691Z,68.30
2018-05-13T01:09:12.006Z,69.80
2018-05-13T01:11:15.342Z,68.70
2018-05-13T01:13:19.419Z,67.80
2018-05-13T01:15:22.813Z,67.80
2018-05-13T01:17:26.166Z,67.70
2018-05-13T01:19:29.484Z,68.10
2018-05-13T01:21:32.795Z,68.10
2018-05-13T01:23:36.229Z,67.60
2018-05-13T01:25:39.529Z,69.00
2018-05-13T01:27:42.906Z,69.20
2018-05-13T01:29:46.216Z,69.90
2018-05-13T01:31:49.546Z,69.40
2018-05-13T01:33:52.846Z,70.20
2018-05-13T01:35:56.180Z,70.20
2018-05-13T01:37:59.500Z,69.70
2018-05-13T01:40:02.973Z,69.70
2018-05-13T01:42:06.341Z,70.50
2018-05-13T01:44:10.432Z,70.50
2018-05-13T01:46:13.733Z,70.50
2018-05-13T01:48:17.831Z,71.70
2018-05-13T01:50:31.837Z,71.70
2018-05-13T01:52:35.174Z,71.30
2018-05-13T01:54:40.222Z,71.20
2018-05-13T01:56:44.363Z,72.00
2018-05-13T01:58:47.705Z,72.00
2018-05-13T02:00:51.056Z,72.30
2018-05-13T02:02:54.382Z,72.30
2018-05-13T02:04:57.680Z,71.90
2018-05-13T02:07:01.795Z,71.70
2018-05-13T02:09:05.160Z,71.70
2018-05-13T02:11:08.480Z,71.90
2018-05-13T02:13:12.599Z,71.20
2018-05-13T02:15:16.666Z,71.90
2018-05-13T02:17:19.989Z,71.90
2018-05-13T02:19:24.195Z,72.00
2018-05-13T02:21:28.295Z,71.80
2018-05-13T02:23:31.595Z,71.80
2018-05-13T02:25:35.686Z,72.30
2018-05-13T02:27:39.450Z,72.20
2018-05-13T02:29:42.752Z,71.80
2018-05-13T02:31:46.066Z,71.60
2018-05-13T02:33:49.385Z,71.60
2018-05-13T02:35:53.467Z,72.60
2018-05-13T02:37:56.787Z,72.60
2018-05-13T02:40:00.857Z,72.20
2018-05-13T02:42:04.217Z,72.20
2018-05-13T02:44:07.645Z,72.00
2018-05-13T02:46:11.007Z,72.20
2018-05-13T02:48:14.338Z,72.50
2018-05-13T02:50:17.845Z,72.70
2018-05-13T02:52:21.179Z,72.50
2018-05-13T02:54:24.481Z,73.00
2018-05-13T02:56:27.888Z,72.50
2018-05-13T02:58:31.193Z,72.80
2018-05-13T03:00:34.492Z,72.50
2018-05-13T03:02:38.298Z,72.70
2018-05-13T03:04:41.606Z,73.00
2018-05-13T03:06:45.712Z,72.60
2018-05-13T03:08:49.041Z,72.60
2018-05-13T03:10:52.400Z,73.40
2018-05-13T03:12:55.715Z,72.90
2018-05-13T03:14:59.804Z,72.80
2018-05-13T03:17:03.891Z,73.20
2018-05-13T03:19:07.225Z,73.00
2018-05-13T03:21:10.549Z,73.10
2018-05-13T03:23:13.856Z,73.40
2018-05-13T03:25:17.149Z,73.80
2018-05-13T03:27:20.476Z,74.00
2018-05-13T03:29:24.675Z,73.60
2018-05-13T03:31:28.064Z,73.60
2018-05-13T03:33:31.386Z,73.90
2018-05-13T03:35:34.695Z,73.90
2018-05-13T03:37:38.068Z,73.90
2018-05-13T03:39:41.448Z,74.40
2018-05-13T03:41:44.807Z,74.10
2018-05-13T03:43:48.114Z,74.60
2018-05-13T03:45:51.442Z,74.20
2018-05-13T03:47:54.774Z,74.50
2018-05-13T03:49:58.097Z,74.90
2018-05-13T03:52:01.463Z,75.20
2018-05-13T03:54:04.765Z,75.60
2018-05-13T03:56:08.096Z,76.10
2018-05-13T03:58:11.452Z,77.50
2018-05-13T04:02:41.732Z,77.50
2018-05-13T04:04:45.087Z,78.40
2018-05-13T04:06:48.408Z,79.40
2018-05-13T04:09:09.193Z,79.30
2018-05-13T04:11:29.950Z,79.40
2018-05-13T04:13:50.762Z,80.00
2018-05-13T04:15:54.156Z,80.20
2018-05-13T04:17:57.514Z,79.60
2018-05-13T04:20:00.880Z,80.80
2018-05-13T04:22:04.371Z,81.70
2018-05-13T04:24:07.739Z,82.20
2018-05-13T04:26:11.098Z,84.00
2018-05-13T04:28:15.405Z,86.30
2018-05-13T04:30:19.582Z,85.70
2018-05-13T04:32:24.533Z,85.70
2018-05-13T04:34:27.895Z,86.40
2018-05-13T04:36:31.291Z,87.40
2018-05-13T04:38:34.882Z,86.60
2018-05-13T04:40:38.206Z,86.80
2018-05-13T04:42:41.572Z,87.40
2018-05-13T04:44:44.945Z,87.50
2018-05-13T04:46:48.297Z,88.70
2018-05-13T04:48:51.668Z,87.70
2018-05-13T04:50:55.839Z,87.70
2018-05-13T04:52:59.209Z,87.70
2018-05-13T04:55:03.320Z,88.40
2018-05-13T04:57:07.519Z,88.60
2018-05-13T04:59:10.831Z,88.60
2018-05-13T05:01:14.209Z,88.80
2018-05-13T05:03:18.287Z,88.90
2018-05-13T05:05:21.593Z,88.80
2018-05-13T05:07:25.207Z,87.50
2018-05-13T05:09:29.344Z,86.20
2018-05-13T05:11:32.650Z,86.10
2018-05-13T05:13:36.017Z,84.20
2018-05-13T05:15:39.376Z,83.10
2018-05-13T05:17:42.739Z,83.10
2018-05-13T05:19:47.237Z,83.70
2018-05-13T05:21:50.607Z,82.90
2018-05-13T05:23:55.835Z,82.10
2018-05-13T05:28:00.641Z,82.90
2018-05-13T05:30:03.989Z,82.90
2018-05-13T05:32:07.499Z,82.50
2018-05-13T05:34:10.936Z,82.00
2018-05-13T05:36:14.247Z,82.80
2018-05-13T05:38:18.404Z,81.90
2018-05-13T05:40:21.802Z,81.80
2018-05-13T05:42:25.240Z,82.30
2018-05-13T05:44:29.552Z,82.30
2018-05-13T05:46:33.024Z,82.20
2018-05-13T05:48:37.178Z,81.60
2018-05-13T05:50:42.154Z,81.00
2018-05-13T05:52:45.715Z,81.00
2018-05-13T05:54:49.055Z,80.40
2018-05-13T05:56:52.416Z,80.30
2018-05-13T05:58:55.947Z,80.00
2018-05-13T06:00:59.273Z,79.70
2018-05-13T06:03:03.437Z,79.80
2018-05-13T06:05:07.453Z,79.80
2018-05-13T06:07:10.856Z,80.00
2018-05-13T06:09:14.305Z,80.30
2018-05-13T06:11:17.689Z,80.40
2018-05-13T06:13:21.002Z,80.40
2018-05-13T06:15:24.333Z,80.50
2018-05-13T06:17:28.715Z,80.00
2018-05-13T06:19:32.093Z,79.90
2018-05-13T06:21:35.543Z,79.10
2018-05-13T06:23:39.076Z,78.50
2018-05-13T06:25:42.401Z,78.60
2018-05-13T06:27:45.772Z,78.10
2018-05-13T06:29:55.664Z,78.00
2018-05-13T06:31:59.491Z,78.20
2018-05-13T06:34:02.821Z,78.30
2018-05-13T06:36:07.170Z,79.00
2018-05-13T06:38:12.585Z,79.30
2018-05-13T06:40:18.523Z,79.30
2018-05-13T06:42:22.032Z,79.80
2018-05-13T06:44:25.458Z,80.00
2018-05-13T06:46:28.901Z,80.30
2018-05-13T06:48:32.316Z,80.70
2018-05-13T06:50:36.830Z,79.90
2018-05-13T06:52:40.353Z,79.60
2018-05-13T06:56:55.989Z,80.20
2018-05-13T06:58:59.362Z,80.60
2018-05-13T07:01:02.733Z,81.00
2018-05-13T07:03:06.194Z,81.30
2018-05-13T07:05:10.049Z,81.30
2018-05-13T07:07:13.361Z,81.40
2018-05-13T07:09:17.034Z,81.60
2018-05-13T07:11:20.417Z,81.60
2018-05-13T07:13:23.736Z,81.90
2018-05-13T07:15:27.212Z,82.30
2018-05-13T07:17:31.299Z,82.30
2018-05-13T07:19:34.668Z,82.30
2018-05-13T07:21:38.211Z,82.40
2018-05-13T07:23:41.549Z,82.30
2018-05-13T07:25:44.930Z,82.70
2018-05-13T07:27:48.464Z,81.60
2018-05-13T07:29:52.632Z,81.60
2018-05-13T07:31:55.947Z,81.50
2018-05-13T07:33:59.531Z,82.60
2018-05-13T07:36:02.907Z,82.20
2018-05-13T07:38:06.363Z,82.90
2018-05-13T07:40:09.811Z,82.90
2018-05-13T07:42:13.162Z,82.90
2018-05-13T07:44:16.489Z,82.60
2018-05-13T07:46:19.999Z,82.80
2018-05-13T07:48:23.915Z,83.10
2018-05-13T07:50:27.296Z,83.10
2018-05-13T07:52:31.891Z,82.90
2018-05-13T07:54:35.259Z,82.70
2018-05-13T07:56:38.691Z,82.90
2018-05-13T07:58:42.144Z,83.00
2018-05-13T08:00:45.497Z,82.40
2018-05-13T08:02:48.863Z,83.10
2018-05-13T08:04:52.373Z,84.60
2018-05-13T08:06:56.452Z,84.70
2018-05-13T08:09:04.292Z,83.50
2018-05-13T08:11:08.708Z,83.70
2018-05-13T08:13:12.052Z,83.50
2018-05-13T08:15:15.388Z,83.90
2018-05-13T08:17:18.948Z,83.80
2018-05-13T08:19:22.293Z,84.20
2018-05-13T08:21:25.654Z,84.00
2018-05-13T08:23:29.907Z,84.80
2018-05-13T08:25:33.229Z,84.80
2018-05-13T08:27:36.604Z,84.40
2018-05-13T08:29:40.193Z,84.50
2018-05-13T08:31:43.539Z,83.80
2018-05-13T08:33:46.884Z,85.00
2018-05-13T08:35:50.457Z,85.30
2018-05-13T08:37:53.860Z,85.10
2018-05-13T08:39:57.253Z,85.30
2018-05-13T08:42:01.413Z,86.50
2018-05-13T08:44:04.752Z,87.50
2018-05-13T08:46:08.108Z,87.60
2018-05-13T08:48:12.433Z,89.00
2018-05-13T08:50:15.779Z,89.00
2018-05-13T08:52:19.258Z,90.20
2018-05-13T08:54:22.732Z,90.00
2018-05-13T08:56:26.220Z,90.70
2018-05-13T08:58:29.751Z,91.00
2018-05-13T09:00:33.296Z,91.20
2018-05-13T09:02:36.754Z,91.20
2018-05-13T09:04:40.552Z,92.20
2018-05-13T09:06:44.064Z,93.00
2018-05-13T09:08:48.197Z,93.30
2018-05-13T09:10:51.596Z,93.60
2018-05-13T09:12:56.490Z,95.10
2018-05-13T09:15:00.901Z,95.10
2018-05-13T09:17:04.649Z,95.90
2018-05-13T09:19:09.576Z,96.50
2018-05-13T09:21:13.770Z,96.50
2018-05-13T09:23:18.572Z,96.50
2018-05-13T09:25:22.116Z,96.50
2018-05-13T09:27:25.596Z,96.40
2018-05-13T09:29:30.017Z,97.60
2018-05-13T09:31:33.579Z,97.60
2018-05-13T09:33:38.865Z,97.30
2018-05-13T09:35:44.134Z,97.00
2018-05-13T09:37:48.006Z,97.40
2018-05-13T09:39:51.766Z,97.70
2018-05-13T09:41:55.967Z,97.70
2018-05-13T09:43:59.611Z,98.00
2018-05-13T09:46:02.967Z,98.30
2018-05-13T09:48:07.095Z,98.60
2018-05-13T09:50:11.649Z,99.60
2018-05-13T09:52:17.592Z,99.60
2018-05-13T09:54:21.454Z,99.10
2018-05-13T09:56:25.743Z,99.70
2018-05-13T09:58:29.177Z,99.90
2018-05-13T10:00:33.416Z,99.90
2018-05-13T10:02:37.010Z,99.90
2018-05-13T10:04:41.406Z,99.90
2018-05-13T10:06:44.894Z,99.90
2018-05-13T10:08:49.068Z,99.90
2018-05-13T10:10:53.579Z,99.90
2018-05-13T10:12:57.474Z,99.90
2018-05-13T10:15:00.977Z,99.90
2018-05-13T10:17:04.510Z,99.90
2018-05-13T10:19:08.135Z,99.90
2018-05-13T10:21:11.553Z,99.90
2018-05-13T10:23:15.188Z,99.90
2018-05-13T10:25:18.599Z,99.90
2018-05-13T10:27:23.764Z,99.90
2018-05-13T10:29:32.686Z,99.90
2018-05-13T10:31:36.839Z,99.90
2018-05-13T10:33:40.637Z,99.90
2018-05-13T10:35:45.012Z,99.90
2018-05-13T10:37:48.699Z,99.90
2018-05-13T10:39:52.219Z,99.90
2018-05-13T10:41:56.065Z,99.90
2018-05-13T10:43:59.668Z,99.90
2018-05-13T10:46:03.180Z,99.90
2018-05-13T10:48:07.328Z,99.90
2018-05-13T10:50:11.538Z,99.90
2018-05-13T10:52:15.174Z,99.90
2018-05-13T10:54:18.813Z,99.90
2018-05-13T10:56:22.166Z,99.90
2018-05-13T10:58:25.723Z,99.90
2018-05-13T11:00:29.159Z,99.90
2018-05-13T11:02:32.567Z,99.90
2018-05-13T11:04:36.017Z,99.90
2018-05-13T11:06:40.853Z,99.90
2018-05-13T11:08:51.044Z,99.90
2018-05-13T11:10:55.103Z,99.90
2018-05-13T11:12:58.907Z,99.90
2018-05-13T11:15:04.300Z,99.90
2018-05-13T11:17:09.035Z,99.90
2018-05-13T11:19:13.413Z,99.90
2018-05-13T11:21:16.939Z,99.90
2018-05-13T11:23:20.552Z,99.90
2018-05-13T11:25:32.723Z,99.90
2018-05-13T11:27:41.339Z,99.90
2018-05-13T11:29:49.891Z,99.90
2018-05-13T11:31:54.359Z,99.90
2018-05-13T11:33:58.578Z,99.90
2018-05-13T11:36:02.756Z,99.90
2018-05-13T11:38:08.967Z,99.90
2018-05-13T11:40:12.494Z,99.90
2018-05-13T11:42:16.125Z,99.90
2018-05-13T11:44:19.989Z,99.90
2018-05-13T11:46:27.213Z,99.90
2018-05-13T11:48:31.584Z,99.90
2018-05-13T11:50:35.894Z,99.90
2018-05-13T11:52:45.961Z,99.90
2018-05-13T11:54:54.183Z,99.90
2018-05-13T11:56:58.127Z,99.90
2018-05-13T11:59:02.788Z,99.90
2018-05-13T12:01:08.930Z,99.90
2018-05-13T12:03:15.908Z,99.90
2018-05-13T12:05:22.981Z,99.90
2018-05-13T12:07:28.866Z,99.90
2018-05-13T12:09:33.250Z,99.90
2018-05-13T12:11:59.426Z,99.90
2018-05-13T12:14:03.894Z,99.90
2018-05-13T12:16:07.876Z,99.90
2018-05-13T12:18:12.058Z,99.90
2018-05-13T12:20:16.173Z,99.90
2018-05-13T12:22:20.907Z,99.90
2018-05-13T12:24:25.301Z,99.90
2018-05-13T12:26:28.752Z,99.90
2018-05-13T12:28:33.170Z,99.90
2018-05-13T12:30:36.694Z,99.90
2018-05-13T12:32:44.020Z,99.90
2018-05-13T12:34:47.458Z,99.90
2018-05-13T12:36:54.016Z,99.90
2018-05-13T12:39:00.250Z,99.90
2018-05-13T12:41:05.127Z,99.90
2018-05-13T12:43:13.298Z,99.90
2018-05-13T12:45:17.313Z,99.90
2018-05-13T12:47:21.280Z,99.90
2018-05-13T12:49:24.787Z,99.90
2018-05-13T12:51:28.591Z,99.90
2018-05-13T12:53:32.278Z,99.90
2018-05-13T12:55:39.737Z,99.90
2018-05-13T12:57:45.047Z,99.90
2018-05-13T12:59:58.214Z,99.90
2018-05-13T13:04:14.090Z,99.90
2018-05-13T13:06:20.923Z,99.90
2018-05-13T13:08:27.764Z,99.90
2018-05-13T13:10:32.869Z,99.90
2018-05-13T13:12:38.673Z,99.90
2018-05-13T13:14:45.658Z,99.90
2018-05-13T13:16:50.604Z,99.90
2018-05-13T13:18:55.114Z,99.90
2018-05-13T13:21:05.279Z,99.90
2018-05-13T13:23:09.422Z,99.90
2018-05-13T13:25:15.102Z,99.90
2018-05-13T13:27:19.857Z,99.90
2018-05-13T13:29:23.781Z,99.90
2018-05-13T13:31:28.918Z,99.90
2018-05-13T13:33:32.417Z,99.90
2018-05-13T13:35:36.979Z,99.90
2018-05-13T13:37:41.181Z,99.90
2018-05-13T13:39:45.517Z,99.90
2018-05-13T13:41:52.857Z,99.90
2018-05-13T13:43:56.552Z,99.90
2018-05-13T13:46:02.487Z,99.90
2018-05-13T13:48:06.450Z,99.90
2018-05-13T13:50:10.034Z,99.90
2018-05-13T13:52:16.731Z,99.90
2018-05-13T13:54:21.075Z,99.90
2018-05-13T13:56:24.507Z,99.90
2018-05-13T13:58:30.380Z,99.90
2018-05-13T14:00:43.592Z,99.90
2018-05-13T14:02:47.248Z,99.90
2018-05-13T14:04:54.024Z,99.90
2018-05-13T14:06:57.684Z,99.90
2018-05-13T14:09:01.073Z,99.90
2018-05-13T14:11:04.977Z,99.90
2018-05-13T14:13:10.635Z,99.90
2018-05-13T14:15:14.084Z,99.90
2018-05-13T14:17:21.339Z,99.90
2018-05-13T14:19:25.383Z,99.90
2018-05-13T14:21:29.557Z,99.90
2018-05-13T14:23:36.165Z,99.90
2018-05-13T14:25:51.324Z,99.90
2018-05-13T14:27:59.085Z,99.90
2018-05-13T14:30:08.134Z,99.90
2018-05-13T14:32:12.441Z,99.90
2018-05-13T14:34:17.632Z,99.90
2018-05-13T14:36:23.360Z,99.90
2018-05-13T14:38:26.817Z,99.90
2018-05-13T14:40:32.022Z,99.90
2018-05-13T14:42:36.070Z,99.90
2018-05-13T14:44:41.279Z,99.90
2018-05-13T14:46:45.939Z,99.90
2018-05-13T14:48:50.284Z,99.90
2018-05-13T14:50:53.751Z,99.90
2018-05-13T14:52:58.127Z,99.90
2018-05-13T14:55:02.604Z,99.90
2018-05-13T14:57:06.313Z,99.90
2018-05-13T14:59:12.098Z,99.90
2018-05-13T15:01:17.334Z,99.90
2018-05-13T15:03:27.517Z,99.90
2018-05-13T15:05:39.133Z,99.90
2018-05-13T15:07:45.251Z,99.90
2018-05-13T15:12:07.359Z,99.90
2018-05-13T15:27:35.255Z,99.90
2018-05-13T15:29:39.340Z,99.90
2018-05-13T15:31:44.050Z,99.90
2018-05-13T15:33:47.526Z,99.90
2018-05-13T15:35:50.917Z,99.90
2018-05-13T15:37:54.935Z,99.90
2018-05-13T15:39:58.665Z,99.90
2018-05-13T15:42:02.281Z,99.90
2018-05-13T15:44:06.851Z,99.90
2018-05-13T15:46:11.763Z,99.90
2018-05-13T15:48:15.814Z,99.90
2018-05-13T15:50:19.292Z,99.90
2018-05-13T15:52:23.530Z,99.90
2018-05-13T15:54:30.835Z,99.90
2018-05-13T15:56:52.029Z,99.90
2018-05-13T15:58:56.688Z,99.90
2018-05-13T16:01:00.303Z,99.90
2018-05-13T16:03:03.746Z,99.90
2018-05-13T16:05:08.163Z,99.90
2018-05-13T16:07:12.038Z,99.90
2018-05-13T16:09:15.441Z,99.90
2018-05-13T16:11:19.038Z,99.90
2018-05-13T16:13:28.352Z,99.90
2018-05-13T16:15:32.209Z,99.90
2018-05-13T16:17:40.915Z,99.90
2018-05-13T16:19:46.005Z,99.90
2018-05-13T16:21:50.729Z,99.90
2018-05-13T16:23:54.439Z,99.90
2018-05-13T16:25:58.888Z,99.90
2018-05-13T16:28:02.263Z,99.90
2018-05-13T16:30:05.861Z,99.90
2018-05-13T16:32:11.024Z,99.90
2018-05-13T16:34:15.896Z,99.90
2018-05-13T16:36:21.146Z,99.90
2018-05-13T16:38:40.446Z,99.90
2018-05-13T16:42:59.050Z,99.90
2018-05-13T16:45:05.058Z,99.90
2018-05-13T16:47:10.404Z,99.90
2018-05-13T16:49:18.685Z,99.90
2018-05-13T16:56:01.688Z,99.90
2018-05-13T17:02:34.641Z,99.90
2018-05-13T17:04:58.823Z,99.90
2018-05-13T17:09:22.460Z,99.90
2018-05-13T17:13:43.767Z,99.90
2018-05-13T17:15:55.552Z,99.90
2018-05-13T17:18:00.330Z,99.90
2018-05-13T17:20:04.316Z,99.90
2018-05-13T17:22:10.225Z,99.90
2018-05-13T17:31:07.745Z,99.90
2018-05-13T17:33:11.683Z,99.90
2018-05-13T17:35:16.043Z,99.90
2018-05-13T17:37:21.546Z,99.90
2018-05-13T17:39:26.731Z,99.90
2018-05-13T17:43:42.032Z,99.90
2018-05-13T17:45:47.315Z,99.90
2018-05-13T17:47:53.252Z,99.90
2018-05-13T17:49:56.946Z,99.90
2018-05-13T17:52:02.025Z,99.90
2018-05-13T17:54:07.157Z,99.90
2018-05-13T17:56:13.655Z,99.90
2018-05-13T17:58:21.602Z,99.90
2018-05-13T18:00:27.227Z,99.90
2018-05-13T18:02:31.708Z,99.90
2018-05-13T18:04:35.898Z,99.90
2018-05-13T18:06:45.036Z,99.90
2018-05-13T18:08:48.470Z,99.90
2018-05-13T18:10:52.529Z,99.90
2018-05-13T18:12:57.506Z,99.90
2018-05-13T18:15:02.388Z,99.90
2018-05-13T18:17:11.510Z,99.90
2018-05-13T18:19:15.681Z,99.90
2018-05-13T18:21:20.138Z,99.90
2018-05-13T18:23:23.791Z,99.90
2018-05-13T18:25:29.103Z,99.90
2018-05-13T18:27:32.668Z,99.90
2018-05-13T18:29:36.486Z,99.90
2018-05-13T18:32:02.177Z,99.90
2018-05-13T18:35:26.678Z,99.90
2018-05-13T18:37:30.331Z,99.90
2018-05-13T18:41:52.347Z,99.90
2018-05-13T18:43:58.860Z,99.90
2018-05-13T18:46:06.834Z,99.90
2018-05-13T18:48:12.502Z,99.90
2018-05-13T18:50:23.096Z,99.90
2018-05-13T18:52:27.509Z,99.90
2018-05-13T18:54:31.876Z,99.90
2018-05-13T18:56:36.134Z,99.90
2018-05-13T18:58:39.812Z,99.90
2018-05-13T19:00:43.386Z,99.90
2018-05-13T19:02:50.191Z,99.90
2018-05-13T19:04:56.548Z,99.90
2018-05-13T19:07:00.644Z,99.90
2018-05-13T19:09:04.802Z,99.90
2018-05-13T19:11:13.417Z,99.90
2018-05-13T19:13:21.824Z,99.90
2018-05-13T19:15:34.392Z,99.90
2018-05-13T19:17:44.035Z,99.90
2018-05-13T19:19:49.707Z,99.90
2018-05-13T19:21:54.211Z,99.90
2018-05-13T19:23:57.946Z,99.90
2018-05-13T19:26:01.424Z,99.90
2018-05-13T19:28:06.527Z,99.90
2018-05-13T19:30:10.114Z,99.90
2018-05-13T19:32:13.537Z,99.90
2018-05-13T19:34:16.907Z,99.90
2018-05-13T19:36:20.677Z,99.90
2018-05-13T19:38:25.592Z,99.90
2018-05-13T19:40:29.872Z,99.90
2018-05-13T19:42:34.676Z,99.90
2018-05-13T19:44:38.748Z,99.90
2018-05-13T19:47:16.117Z,99.90
2018-05-13T19:49:20.219Z,99.90
2018-05-13T19:51:28.584Z,99.90
2018-05-13T19:53:32.231Z,99.90
2018-05-13T19:55:37.011Z,99.90
2018-05-13T19:57:41.160Z,99.90
2018-05-13T19:59:45.731Z,99.90
2018-05-13T20:01:52.249Z,99.90
2018-05-13T20:04:00.424Z,99.90
2018-05-13T20:06:10.124Z,99.90
2018-05-13T20:08:16.060Z,99.90
2018-05-13T20:10:22.212Z,99.90
2018-05-13T20:12:29.311Z,99.90
2018-05-13T20:14:33.536Z,99.90
2018-05-13T20:16:40.088Z,99.90
2018-05-13T20:18:44.567Z,99.90
2018-05-13T20:20:48.834Z,99.90
2018-05-13T20:25:35.839Z,99.90
2018-05-13T20:27:40.372Z,99.90
2018-05-13T20:29:44.289Z,99.90
2018-05-13T20:31:49.313Z,99.90
2018-05-13T20:33:53.050Z,99.90
2018-05-13T20:35:57.229Z,99.90
2018-05-13T20:38:00.905Z,99.90
2018-05-13T20:40:05.311Z,99.90
2018-05-13T20:42:09.718Z,99.90
2018-05-13T20:44:14.135Z,99.90
2018-05-13T20:46:18.515Z,99.90
2018-05-13T20:48:22.134Z,99.90
2018-05-13T20:50:26.046Z,99.90
2018-05-13T20:52:29.556Z,99.90
2018-05-13T20:54:35.324Z,99.90
2018-05-13T20:56:39.688Z,99.90
2018-05-13T20:58:43.593Z,99.90
2018-05-13T21:00:47.608Z,99.90
2018-05-13T21:02:51.049Z,99.90
2018-05-13T21:04:54.530Z,99.90
2018-05-13T21:06:58.107Z,99.90
2018-05-13T21:09:02.026Z,99.90
2018-05-13T21:11:05.570Z,99.90
2018-05-13T21:13:08.886Z,99.90
2018-05-13T21:15:12.388Z,99.90
2018-05-13T21:17:15.997Z,99.90
2018-05-13T21:19:19.478Z,99.90
2018-05-13T21:21:22.911Z,99.90
2018-05-13T21:23:26.314Z,99.90
2018-05-13T21:25:30.427Z,99.90
2018-05-13T21:27:34.733Z,99.90
2018-05-13T21:29:38.135Z,99.90
2018-05-13T21:31:41.624Z,99.90
2018-05-13T21:33:45.754Z,99.90
2018-05-13T21:35:49.099Z,99.90
2018-05-13T21:37:52.494Z,99.90
2018-05-13T21:39:55.908Z,99.90
2018-05-13T21:42:01.059Z,99.90
2018-05-13T21:44:05.554Z,99.90
2018-05-13T21:46:09.963Z,99.90
2018-05-13T21:48:14.361Z,99.90
2018-05-13T21:50:18.798Z,99.90
2018-05-13T21:52:23.219Z,99.90
2018-05-13T21:54:27.607Z,99.90
2018-05-13T21:56:32.081Z,99.90
2018-05-13T21:58:37.554Z,99.90
2018-05-13T22:00:42.119Z,99.90
2018-05-13T22:02:46.449Z,99.90
2018-05-13T22:05:00.792Z,99.90
2018-05-13T22:07:10.325Z,99.90
2018-05-13T22:09:15.762Z,99.90
2018-05-13T22:11:20.587Z,99.90
2018-05-13T22:13:25.002Z,99.90
2018-05-13T22:15:29.193Z,99.90
2018-05-13T22:17:33.523Z,99.90
2018-05-13T22:19:37.975Z,99.90
2018-05-13T22:21:41.993Z,99.90
2018-05-13T22:23:45.381Z,99.90
2018-05-13T22:25:48.835Z,99.90
2018-05-13T22:27:52.315Z,99.90
2018-05-13T22:29:55.781Z,99.90
2018-05-13T22:31:59.201Z,99.90
2018-05-13T22:34:02.547Z,99.90
2018-05-13T22:36:06.657Z,99.90
2018-05-13T22:38:10.365Z,99.90
2018-05-13T22:40:13.777Z,99.90
2018-05-13T22:42:17.221Z,99.90
2018-05-13T22:44:20.724Z,99.90
2018-05-13T22:46:24.866Z,99.90
2018-05-13T22:48:29.145Z,99.90
2018-05-13T22:50:32.671Z,99.90
2018-05-13T22:52:36.117Z,99.90
2018-05-13T22:54:39.549Z,99.90
2018-05-13T22:56:42.963Z,99.90
2018-05-13T22:58:46.366Z,99.90
2018-05-13T23:00:49.832Z,99.90
2018-05-13T23:02:53.931Z,99.90
2018-05-13T23:04:58.071Z,99.90
2018-05-13T23:07:01.465Z,99.90
2018-05-13T23:09:04.981Z,99.90
2018-05-13T23:11:09.148Z,99.90
2018-05-13T23:13:13.311Z,99.90
2018-05-13T23:15:16.803Z,99.90
2018-05-13T23:17:20.973Z,99.90
2018-05-13T23:19:25.218Z,99.90
2018-05-13T23:21:28.581Z,99.90
2018-05-13T23:23:31.970Z,99.90
2018-05-13T23:25:36.112Z,99.90
2018-05-13T23:27:39.478Z,99.90
2018-05-13T23:29:43.642Z,99.90
2018-05-13T23:31:46.984Z,99.90
2018-05-13T23:33:50.344Z,99.90
2018-05-13T23:35:53.697Z,99.90
2018-05-13T23:37:57.289Z,99.90
2018-05-13T23:40:00.695Z,99.90
2018-05-13T23:42:04.034Z,99.90
2018-05-13T23:44:08.282Z,99.90
2018-05-13T23:46:11.812Z,99.90
2018-05-13T23:48:15.185Z,99.90
2018-05-13T23:50:18.588Z,99.90
2018-05-13T23:52:21.963Z,99.90
2018-05-13T23:54:27.348Z,99.90
2018-05-13T23:56:30.684Z,99.90
2018-05-13T23:58:34.035Z,99.90
